Time,TemperatureF,DewpointF,PressureIn,WindDirection,WindDirectionDegrees,WindSpeedMPH,WindSpeedGustMPH,Humidity,HourlyPrecipIn,Conditions,Clouds,dailyrainin,SoftwareType,DateUTC
2013-02-15 00:02:00,32.0,29.0,30.05,SE,138,0.0,2.0,87,0.00,,,0.01,,2013-02-15 05:02:00,
2013-02-15 00:12:00,32.0,29.0,30.05,SE,138,0.0,2.0,87,0.00,,,0.01,,2013-02-15 05:12:00,
2013-02-15 00:22:00,32.0,29.0,30.06,SSW,195,2.0,2.0,88,0.00,,,0.01,,2013-02-15 05:22:00,
2013-02-15 00:32:00,31.0,28.0,30.06,SSW,200,0.0,1.0,90,0.00,,,0.01,,2013-02-15 05:32:00,
2013-02-15 00:42:00,31.0,28.0,30.06,SSW,200,0.0,1.0,90,0.00,,,0.01,,2013-02-15 05:42:00,
2013-02-15 00:52:00,31.0,28.0,30.06,SSW,200,0.0,1.0,90,0.00,,,0.01,,2013-02-15 05:52:00,
2013-02-15 01:02:00,30.0,27.0,30.06,SSW,200,1.0,2.0,90,0.00,,,0.01,,2013-02-15 06:02:00,
2013-02-15 01:11:00,31.0,29.0,30.06,SSW,200,1.0,2.0,91,0.00,,,0.01,,2013-02-15 06:11:00,
2013-02-15 01:22:00,31.0,29.0,30.06,SSW,200,1.0,2.0,91,0.00,,,0.01,,2013-02-15 06:22:00,
2013-02-15 01:32:00,31.0,29.0,30.06,SSW,200,1.0,2.0,91,0.00,,,0.01,,2013-02-15 06:32:00,
2013-02-15 01:42:00,31.0,29.0,30.06,SSW,200,1.0,2.0,91,0.00,,,0.01,,2013-02-15 06:42:00,
2013-02-15 01:52:00,30.0,27.0,30.08,SE,144,0.0,1.0,89,0.00,,,0.01,,2013-02-15 06:52:00,
2013-02-15 02:01:00,30.0,27.0,30.08,SE,144,0.0,1.0,89,0.00,,,0.01,,2013-02-15 07:01:00,
2013-02-15 02:11:00,30.0,27.0,30.08,SE,144,0.0,1.0,89,0.00,,,0.01,,2013-02-15 07:11:00,
2013-02-15 02:21:00,29.0,27.0,30.08,SE,144,0.0,2.0,92,0.00,,,0.01,,2013-02-15 07:21:00,
2013-02-15 02:32:00,29.0,27.0,30.08,ESE,104,0.0,2.0,93,0.00,,,0.01,,2013-02-15 07:32:00,
2013-02-15 02:42:00,29.0,27.0,30.08,ESE,104,0.0,2.0,93,0.00,,,0.01,,2013-02-15 07:42:00,
2013-02-15 02:52:00,29.0,27.0,30.08,ENE,57,1.0,2.0,93,0.00,,,0.01,,2013-02-15 07:52:00,
2013-02-15 03:01:00,30.0,28.0,30.07,NE,56,1.0,2.0,93,0.00,,,0.01,,2013-02-15 08:01:00,
2013-02-15 03:11:00,30.0,28.0,30.07,NE,56,1.0,2.0,93,0.00,,,0.01,,2013-02-15 08:11:00,
2013-02-15 03:21:00,30.0,28.0,30.07,NE,56,0.0,1.0,92,0.00,,,0.01,,2013-02-15 08:21:00,
2013-02-15 03:32:00,29.0,27.0,30.06,NE,56,1.0,1.0,92,0.00,,,0.01,,2013-02-15 08:32:00,
2013-02-15 03:42:00,29.0,27.0,30.06,NE,56,1.0,1.0,92,0.00,,,0.01,,2013-02-15 08:42:00,
2013-02-15 03:53:00,29.0,27.0,30.06,NNE,25,0.0,0.0,92,0.00,,,0.01,,2013-02-15 08:53:00,
2013-02-15 04:02:00,28.0,26.0,30.06,North,10,0.0,1.0,92,0.00,,,0.01,,2013-02-15 09:02:00,
2013-02-15 04:12:00,28.0,26.0,30.06,North,10,0.0,1.0,92,0.00,,,0.01,,2013-02-15 09:12:00,
2013-02-15 04:21:00,29.0,27.0,30.05,North,10,0.0,0.0,92,0.00,,,0.01,,2013-02-15 09:21:00,
2013-02-15 04:32:00,28.0,26.0,30.06,North,10,0.0,1.0,92,0.00,,,0.01,,2013-02-15 09:32:00,
2013-02-15 04:42:00,28.0,26.0,30.06,North,10,0.0,1.0,92,0.00,,,0.01,,2013-02-15 09:42:00,
2013-02-15 04:52:00,28.0,26.0,30.06,North,10,0.0,2.0,92,0.00,,,0.01,,2013-02-15 09:52:00,
2013-02-15 05:01:00,28.0,26.0,30.06,North,10,0.0,0.0,92,0.00,,,0.01,,2013-02-15 10:01:00,
2013-02-15 05:11:00,28.0,26.0,30.06,North,10,0.0,0.0,92,0.00,,,0.01,,2013-02-15 10:11:00,
2013-02-15 05:21:00,27.0,25.0,30.06,North,10,0.0,0.0,93,0.00,,,0.01,,2013-02-15 10:21:00,
2013-02-15 05:32:00,27.0,25.0,30.06,North,10,0.0,0.0,93,0.00,,,0.01,,2013-02-15 10:32:00,
2013-02-15 05:42:00,27.0,25.0,30.06,North,10,0.0,0.0,93,0.00,,,0.01,,2013-02-15 10:42:00,
2013-02-15 05:52:00,28.0,26.0,30.06,North,10,0.0,0.0,93,0.00,,,0.01,,2013-02-15 10:52:00,
2013-02-15 06:01:00,28.0,26.0,30.06,North,10,0.0,0.0,93,0.00,,,0.01,,2013-02-15 11:01:00,
2013-02-15 06:11:00,28.0,26.0,30.06,North,10,0.0,0.0,93,0.00,,,0.01,,2013-02-15 11:11:00,
2013-02-15 06:23:00,28.0,26.0,30.06,North,10,0.0,0.0,92,0.00,,,0.01,,2013-02-15 11:23:00,
2013-02-15 06:32:00,27.0,25.0,30.06,North,10,0.0,0.0,93,0.00,,,0.01,,2013-02-15 11:32:00,
2013-02-15 06:42:00,27.0,25.0,30.06,North,10,0.0,0.0,93,0.00,,,0.01,,2013-02-15 11:42:00,
2013-02-15 06:52:00,27.0,25.0,30.07,NE,55,1.0,2.0,92,0.00,,,0.01,,2013-02-15 11:52:00,
2013-02-15 07:02:00,27.0,25.0,30.07,NE,55,0.0,2.0,93,0.00,,,0.01,,2013-02-15 12:02:00,
2013-02-15 07:11:00,27.0,25.0,30.07,NE,55,0.0,2.0,93,0.00,,,0.01,,2013-02-15 12:11:00,
2013-02-15 07:21:00,26.0,24.0,30.08,NE,55,0.0,1.0,92,0.00,,,0.01,,2013-02-15 12:21:00,
2013-02-15 07:32:00,26.0,24.0,30.08,NE,55,0.0,1.0,93,0.00,,,0.01,,2013-02-15 12:32:00,
2013-02-15 07:42:00,26.0,24.0,30.08,NE,55,0.0,1.0,93,0.00,,,0.01,,2013-02-15 12:42:00,
2013-02-15 07:52:00,27.0,25.0,30.09,NE,55,0.0,0.0,93,0.00,,,0.01,,2013-02-15 12:52:00,
2013-02-15 08:02:00,28.0,27.0,30.10,NE,55,0.0,0.0,94,0.00,,,0.01,,2013-02-15 13:02:00,
2013-02-15 08:11:00,28.0,27.0,30.10,NE,55,0.0,0.0,94,0.00,,,0.01,,2013-02-15 13:11:00,
2013-02-15 08:22:00,29.0,27.0,30.10,NE,55,0.0,0.0,92,0.00,,,0.01,,2013-02-15 13:22:00,
2013-02-15 08:32:00,29.0,27.0,30.10,NE,55,0.0,0.0,92,0.00,,,0.01,,2013-02-15 13:32:00,
2013-02-15 08:42:00,29.0,27.0,30.10,NE,55,0.0,0.0,92,0.00,,,0.01,,2013-02-15 13:42:00,
2013-02-15 08:52:00,29.0,27.0,30.10,NE,55,0.0,0.0,92,0.00,,,0.01,,2013-02-15 13:52:00,
2013-02-15 09:01:00,29.0,27.0,30.10,NE,55,0.0,0.0,92,0.00,,,0.01,,2013-02-15 14:01:00,
2013-02-15 11:02:00,49.0,36.0,30.08,West,264,6.0,8.0,61,0.00,,,0.01,,2013-02-15 16:02:00,
2013-02-15 11:12:00,49.0,36.0,30.08,West,264,6.0,8.0,61,0.00,,,0.01,,2013-02-15 16:12:00,
2013-02-15 11:22:00,51.0,36.0,30.08,West,260,5.0,8.0,56,0.00,,,0.01,,2013-02-15 16:22:00,
2013-02-15 11:32:00,51.0,35.0,30.07,West,263,7.0,11.0,55,0.00,,,0.01,,2013-02-15 16:32:00,
2013-02-15 11:43:00,51.0,35.0,30.07,West,263,7.0,11.0,55,0.00,,,0.01,,2013-02-15 16:43:00,
2013-02-15 11:52:00,52.0,36.0,30.07,West,261,7.0,10.0,54,0.00,,,0.01,,2013-02-15 16:52:00,
2013-02-15 12:01:00,53.0,36.0,30.06,West,261,5.0,8.0,52,0.00,,,0.01,,2013-02-15 17:01:00,
2013-02-15 12:11:00,53.0,35.0,30.05,South,173,5.0,8.0,51,0.00,,,0.01,,2013-02-15 17:11:00,
2013-02-15 12:21:00,53.0,35.0,30.05,South,173,5.0,8.0,51,0.00,,,0.01,,2013-02-15 17:21:00,
2013-02-15 12:32:00,54.0,35.0,30.04,South,188,7.0,14.0,49,0.00,,,0.01,,2013-02-15 17:32:00,
2013-02-15 12:42:00,54.0,35.0,30.04,South,188,7.0,14.0,49,0.00,,,0.01,,2013-02-15 17:42:00,
2013-02-15 12:52:00,54.0,34.0,30.03,SW,221,6.0,13.0,47,0.00,,,0.01,,2013-02-15 17:52:00,
2013-02-15 13:01:00,55.0,34.0,30.02,SW,234,6.0,15.0,45,0.00,,,0.01,,2013-02-15 18:01:00,
2013-02-15 13:11:00,55.0,34.0,30.02,SW,234,6.0,15.0,45,0.00,,,0.01,,2013-02-15 18:11:00,
2013-02-15 13:21:00,56.0,33.0,30.01,SW,229,6.0,15.0,42,0.00,,,0.01,,2013-02-15 18:21:00,
2013-02-15 13:32:00,56.0,34.0,30.01,South,182,4.0,11.0,44,0.00,,,0.00,,2013-02-15 18:32:00,
2013-02-15 13:42:00,56.0,34.0,30.01,South,182,4.0,11.0,44,0.00,,,0.00,,2013-02-15 18:42:00,
2013-02-15 13:52:00,56.0,33.0,30.00,WSW,250,6.0,15.0,42,0.00,,,0.00,,2013-02-15 18:52:00,
2013-02-15 14:02:00,56.0,32.0,29.98,SSW,206,8.0,16.0,40,0.00,,,0.00,,2013-02-15 19:02:00,
2013-02-15 14:11:00,56.0,32.0,29.98,SSW,206,8.0,16.0,40,0.00,,,0.00,,2013-02-15 19:11:00,
2013-02-15 14:22:00,57.0,33.0,29.98,SSW,203,5.0,11.0,40,0.00,,,0.00,,2013-02-15 19:22:00,
2013-02-15 14:32:00,58.0,33.0,29.98,SSW,213,9.0,14.0,38,0.00,,,0.00,,2013-02-15 19:32:00,
2013-02-15 14:42:00,58.0,33.0,29.98,SSW,213,9.0,14.0,38,0.00,,,0.00,,2013-02-15 19:42:00,
2013-02-15 14:52:00,58.0,31.0,29.96,WSW,242,10.0,15.0,36,0.00,,,0.00,,2013-02-15 19:52:00,
2013-02-15 15:01:00,57.0,32.0,29.95,WSW,248,7.0,13.0,38,0.00,,,0.00,,2013-02-15 20:01:00,
2013-02-15 15:11:00,57.0,32.0,29.95,WSW,248,7.0,13.0,38,0.00,,,0.00,,2013-02-15 20:11:00,
2013-02-15 15:21:00,58.0,31.0,29.95,WSW,246,8.0,14.0,36,0.00,,,0.00,,2013-02-15 20:21:00,
2013-02-15 15:32:00,58.0,31.0,29.95,SW,215,9.0,17.0,36,0.00,,,0.00,,2013-02-15 20:32:00,
2013-02-15 15:42:00,58.0,31.0,29.95,SW,215,9.0,17.0,36,0.00,,,0.00,,2013-02-15 20:42:00,
2013-02-15 15:52:00,58.0,33.0,29.94,WNW,285,6.0,14.0,38,0.00,,,0.00,,2013-02-15 20:52:00,
2013-02-15 16:02:00,57.0,30.0,29.94,WSW,244,6.0,14.0,36,0.00,,,0.00,,2013-02-15 21:02:00,
2013-02-15 16:11:00,57.0,30.0,29.94,WSW,244,6.0,14.0,36,0.00,,,0.00,,2013-02-15 21:11:00,
2013-02-15 16:22:00,57.0,31.0,29.94,West,264,8.0,12.0,37,0.00,,,0.00,,2013-02-15 21:22:00,
2013-02-15 16:32:00,56.0,30.0,29.94,WSW,248,7.0,16.0,37,0.00,,,0.00,,2013-02-15 21:32:00,
2013-02-15 16:42:00,56.0,30.0,29.94,WSW,248,7.0,16.0,37,0.00,,,0.00,,2013-02-15 21:42:00,
2013-02-15 16:52:00,56.0,31.0,29.94,SW,232,6.0,11.0,38,0.00,,,0.00,,2013-02-15 21:52:00,
2013-02-15 17:02:00,56.0,32.0,29.94,WSW,254,3.0,9.0,40,0.00,,,0.00,,2013-02-15 22:02:00,
2013-02-15 17:11:00,56.0,32.0,29.94,WSW,254,3.0,9.0,40,0.00,,,0.00,,2013-02-15 22:11:00,
2013-02-15 17:22:00,55.0,31.0,29.94,WNW,283,1.0,6.0,40,0.00,,,0.00,,2013-02-15 22:22:00,
2013-02-15 17:32:00,55.0,32.0,29.95,NW,319,1.0,10.0,41,0.00,,,0.00,,2013-02-15 22:32:00,
2013-02-15 17:42:00,55.0,32.0,29.95,NW,319,1.0,10.0,41,0.00,,,0.00,,2013-02-15 22:42:00,
2013-02-15 17:51:00,55.0,32.0,29.94,WNW,287,3.0,7.0,42,0.00,,,0.00,,2013-02-15 22:51:00,
2013-02-15 18:02:00,54.0,33.0,29.94,WNW,302,4.0,8.0,44,0.00,,,0.00,,2013-02-15 23:02:00,
2013-02-15 18:11:00,54.0,33.0,29.94,WNW,302,4.0,8.0,44,0.00,,,0.00,,2013-02-15 23:11:00,
2013-02-15 18:21:00,54.0,33.0,29.95,West,278,2.0,9.0,45,0.00,,,0.00,,2013-02-15 23:21:00,
2013-02-15 18:32:00,53.0,33.0,29.95,West,280,2.0,6.0,47,0.00,,,0.00,,2013-02-15 23:32:00,
2013-02-15 18:42:00,53.0,33.0,29.95,West,280,2.0,6.0,47,0.00,,,0.00,,2013-02-15 23:42:00,
2013-02-15 18:52:00,53.0,34.0,29.96,West,261,6.0,12.0,48,0.00,,,0.00,,2013-02-15 23:52:00,
2013-02-15 19:02:00,52.0,34.0,29.96,West,279,5.0,9.0,50,0.00,,,0.00,,2013-02-16 00:02:00,
2013-02-15 19:11:00,52.0,34.0,29.96,West,279,5.0,9.0,50,0.00,,,0.00,,2013-02-16 00:11:00,
2013-02-15 19:22:00,52.0,35.0,29.97,WNW,288,4.0,10.0,52,0.00,,,0.00,,2013-02-16 00:22:00,
2013-02-15 19:32:00,52.0,36.0,29.98,NW,315,5.0,8.0,55,0.00,,,0.00,,2013-02-16 00:32:00,
2013-02-15 19:42:00,52.0,36.0,29.98,NW,315,5.0,8.0,55,0.00,,,0.00,,2013-02-16 00:42:00,
2013-02-15 19:52:00,50.0,37.0,29.99,NNW,338,3.0,9.0,60,0.00,,,0.00,,2013-02-16 00:52:00,
2013-02-15 20:02:00,47.0,39.0,30.01,North,360,3.0,6.0,73,0.01,,,0.01,,2013-02-16 01:02:00,
2013-02-15 20:11:00,47.0,39.0,30.01,North,360,3.0,6.0,73,0.01,,,0.01,,2013-02-16 01:11:00,
2013-02-15 20:21:00,45.0,38.0,30.02,NNW,330,3.0,9.0,77,0.02,,,0.02,,2013-02-16 01:21:00,
2013-02-15 20:32:00,45.0,38.0,30.02,NNW,330,3.0,9.0,77,0.02,,,0.02,,2013-02-16 01:32:00,
2013-02-15 20:42:00,45.0,38.0,30.02,NNW,330,3.0,9.0,77,0.02,,,0.02,,2013-02-16 01:42:00,
2013-02-15 20:52:00,45.0,38.0,30.02,NNW,330,3.0,9.0,77,0.02,,,0.02,,2013-02-16 01:52:00,
2013-02-15 21:22:00,42.0,34.0,30.03,NNW,346,3.0,12.0,74,0.01,,,0.04,,2013-02-16 02:22:00,
2013-02-15 21:32:00,42.0,34.0,30.02,NW,325,3.0,6.0,73,0.00,,,0.04,,2013-02-16 02:32:00,
2013-02-15 21:42:00,42.0,34.0,30.02,NW,325,3.0,6.0,73,0.00,,,0.04,,2013-02-16 02:42:00,
2013-02-15 21:52:00,41.0,33.0,30.02,West,266,2.0,4.0,72,0.00,,,0.04,,2013-02-16 02:52:00,
2013-02-15 22:02:00,42.0,33.0,30.03,NNE,22,3.0,11.0,70,0.00,,,0.04,,2013-02-16 03:02:00,
2013-02-15 22:11:00,42.0,33.0,30.03,NNE,22,3.0,11.0,70,0.00,,,0.04,,2013-02-16 03:11:00,
2013-02-15 22:21:00,41.0,32.0,30.03,NW,324,1.0,6.0,70,0.00,,,0.04,,2013-02-16 03:21:00,
2013-02-15 22:32:00,41.0,32.0,30.02,NE,42,3.0,6.0,69,0.00,,,0.04,,2013-02-16 03:32:00,
2013-02-15 22:42:00,41.0,32.0,30.02,NE,42,3.0,6.0,69,0.00,,,0.04,,2013-02-16 03:42:00,
2013-02-15 22:52:00,41.0,31.0,30.02,North,355,4.0,7.0,68,0.00,,,0.04,,2013-02-16 03:52:00,
2013-02-15 23:01:00,41.0,31.0,30.02,North,355,4.0,7.0,68,0.00,,,0.04,,2013-02-16 04:01:00,
2013-02-15 23:11:00,40.0,32.0,30.02,NNW,333,1.0,4.0,74,0.00,,,0.04,,2013-02-16 04:11:00,
2013-02-15 23:21:00,40.0,32.0,30.02,NNW,333,1.0,4.0,74,0.00,,,0.04,,2013-02-16 04:21:00,
2013-02-15 23:32:00,39.0,31.0,30.01,NNW,338,2.0,5.0,74,0.00,,,0.04,,2013-02-16 04:32:00,
2013-02-15 23:42:00,39.0,31.0,30.01,NNW,338,2.0,5.0,74,0.00,,,0.04,,2013-02-16 04:42:00,
2013-02-15 23:52:00,39.0,30.0,30.01,NNW,339,3.0,8.0,71,0.00,,,0.04,,2013-02-16 04:52:00,